Time;durP1;ratioP1;P1;durP2;ratioP2;P2;SDS_P1;SDS_P2;PMS_P1;PMS_P2;Temp;Humidity;BMP_temperature;BMP_pressure;BME280_temperature;BME280_humidity;BME280_pressure;Samples;Min_cycle;Max_cycle;Signal;HPM_P1;HPM_P2
2023/09/30 00:01:55;;;;;;;14.57;10.18;;;16.00;99.90;;;;;;5096206;28;20004;-79
2023/09/30 00:04:22;;;;;;;15.63;10.07;;;16.00;99.90;;;;;;5090119;28;20262;-80
2023/09/30 00:06:49;;;;;;;14.63;9.52;;;16.00;99.90;;;;;;5076430;28;20539;-80
2023/09/30 00:09:15;;;;;;;17.63;10.57;;;16.00;99.90;;;;;;5069658;28;20028;-79
2023/09/30 00:11:41;;;;;;;14.82;10.65;;;16.00;99.90;;;;;;5058327;28;20464;-79
2023/09/30 00:14:08;;;;;;;21.70;12.15;;;16.00;99.90;;;;;;5080504;28;20047;-79
2023/09/30 00:16:34;;;;;;;17.98;11.48;;;16.00;99.90;;;;;;5076381;28;20032;-80
2023/09/30 00:19:03;;;;;;;16.52;11.52;;;15.90;99.90;;;;;;5075903;28;20081;-80
2023/09/30 00:21:30;;;;;;;18.35;11.65;;;15.90;99.90;;;;;;5080732;28;20115;-80
2023/09/30 00:23:58;;;;;;;19.17;12.02;;;15.90;99.90;;;;;;5077551;28;20051;-78
2023/09/30 00:26:24;;;;;;;19.42;11.95;;;15.90;99.90;;;;;;5066595;28;20032;-79
2023/09/30 00:28:51;;;;;;;20.33;12.35;;;15.90;99.90;;;;;;5094005;28;20020;-79
2023/09/30 00:31:17;;;;;;;20.77;12.75;;;15.90;99.90;;;;;;5076670;28;20028;-80
2023/09/30 00:33:43;;;;;;;20.95;12.13;;;15.80;99.90;;;;;;5069211;28;23220;-80
2023/09/30 00:36:10;;;;;;;21.80;13.40;;;15.80;99.90;;;;;;5069091;28;20158;-80
2023/09/30 00:38:40;;;;;;;18.42;12.98;;;15.80;99.90;;;;;;5095780;28;20031;-78
2023/09/30 00:41:08;;;;;;;21.27;14.07;;;15.80;99.90;;;;;;5089987;28;20035;-79
2023/09/30 00:43:39;;;;;;;22.42;13.55;;;15.80;99.90;;;;;;5088520;28;20050;-79
2023/09/30 00:46:25;;;;;;;21.90;14.02;;;15.80;99.90;;;;;;5074370;28;20551;-78
2023/09/30 00:48:51;;;;;;;19.27;13.35;;;15.80;99.90;;;;;;5093027;28;20020;-78
2023/09/30 00:51:18;;;;;;;22.02;14.05;;;15.80;99.90;;;;;;5054425;28;20488;-79
2023/09/30 00:53:45;;;;;;;20.95;13.55;;;15.80;99.90;;;;;;5070460;28;20680;-79
2023/09/30 00:56:14;;;;;;;20.17;12.93;;;15.80;99.90;;;;;;5089586;28;20032;-79
2023/09/30 00:58:41;;;;;;;23.30;14.45;;;15.80;99.90;;;;;;5073341;28;20105;-79
2023/09/30 01:01:08;;;;;;;21.77;13.77;;;15.70;99.90;;;;;;5074648;28;20027;-79
2023/09/30 01:03:36;;;;;;;20.67;14.52;;;15.80;99.90;;;;;;5077664;28;20019;-79
2023/09/30 01:06:02;;;;;;;22.60;15.05;;;15.70;99.90;;;;;;5077739;28;20073;-79
2023/09/30 01:08:28;;;;;;;23.33;14.82;;;15.70;99.90;;;;;;5074342;28;20113;-79
2023/09/30 01:10:56;;;;;;;26.25;15.20;;;15.70;99.90;;;;;;5075142;28;20086;-78
2023/09/30 01:13:22;;;;;;;21.85;14.68;;;15.70;99.90;;;;;;5071066;28;20035;-80
2023/09/30 01:15:48;;;;;;;23.73;14.77;;;15.70;99.90;;;;;;5092920;28;20028;-78
2023/09/30 01:18:14;;;;;;;19.98;14.20;;;15.60;99.90;;;;;;5093942;28;20047;-78
2023/09/30 01:20:43;;;;;;;24.63;14.90;;;15.70;99.90;;;;;;5074956;28;20318;-79
2023/09/30 01:23:12;;;;;;;19.85;14.27;;;15.60;99.90;;;;;;5076858;28;20031;-79
2023/09/30 01:25:39;;;;;;;27.80;15.98;;;15.60;99.90;;;;;;5089617;28;20480;-79
2023/09/30 01:28:08;;;;;;;28.67;14.68;;;15.60;99.90;;;;;;5060982;28;20023;-79
2023/09/30 01:30:34;;;;;;;22.67;15.15;;;15.60;99.90;;;;;;5052619;28;20044;-78
2023/09/30 01:33:02;;;;;;;22.15;14.65;;;15.60;99.90;;;;;;5086457;28;20039;-79
2023/09/30 01:35:31;;;;;;;23.90;15.57;;;15.60;99.90;;;;;;5089413;28;20028;-78
2023/09/30 01:37:57;;;;;;;21.40;15.93;;;15.60;99.90;;;;;;5058087;28;20483;-78
2023/09/30 01:40:23;;;;;;;24.25;14.57;;;15.50;99.90;;;;;;5067493;28;20029;-78
2023/09/30 01:42:52;;;;;;;19.63;13.75;;;15.50;99.90;;;;;;5073961;28;20390;-78
2023/09/30 01:45:18;;;;;;;23.95;13.57;;;15.50;99.90;;;;;;5075182;28;20027;-79
2023/09/30 01:47:45;;;;;;;22.80;14.48;;;15.50;99.90;;;;;;5073545;28;20368;-78
2023/09/30 01:50:11;;;;;;;21.80;13.70;;;15.50;99.90;;;;;;5067799;28;20039;-78
2023/09/30 01:52:37;;;;;;;22.25;15.05;;;15.40;99.90;;;;;;5074695;28;20365;-78
2023/09/30 01:55:04;;;;;;;22.35;14.02;;;15.40;99.90;;;;;;5090354;28;20103;-79
2023/09/30 01:57:32;;;;;;;23.30;15.52;;;15.40;99.90;;;;;;5087711;28;20028;-78
2023/09/30 01:59:58;;;;;;;25.50;15.82;;;15.40;99.90;;;;;;5071997;28;20108;-78
2023/09/30 02:02:26;;;;;;;24.42;15.68;;;15.40;99.90;;;;;;5088065;28;20162;-78
2023/09/30 02:04:54;;;;;;;25.60;16.02;;;15.40;99.90;;;;;;5092888;28;20677;-79
2023/09/30 02:07:21;;;;;;;24.10;15.45;;;15.30;99.90;;;;;;5073269;28;20022;-79
2023/09/30 02:09:49;;;;;;;24.20;14.90;;;15.30;99.90;;;;;;5094967;28;20047;-78
2023/09/30 02:12:15;;;;;;;22.75;13.80;;;15.40;99.90;;;;;;5070143;28;20024;-78
2023/09/30 02:14:42;;;;;;;22.92;14.18;;;15.30;99.90;;;;;;5087861;28;20770;-78
2023/09/30 02:17:09;;;;;;;20.50;14.77;;;15.30;99.90;;;;;;5093211;28;20051;-78
2023/09/30 02:19:41;;;;;;;25.52;15.23;;;15.30;99.90;;;;;;5072408;28;20077;-78
2023/09/30 02:22:10;;;;;;;27.30;15.60;;;15.30;99.90;;;;;;5072550;28;20020;-78
2023/09/30 02:24:36;;;;;;;22.85;14.05;;;15.20;99.90;;;;;;5072259;28;20028;-79
2023/09/30 02:27:02;;;;;;;24.38;15.00;;;15.20;99.90;;;;;;5070225;28;20039;-78
2023/09/30 02:29:31;;;;;;;28.33;14.95;;;15.20;99.90;;;;;;5077383;28;21351;-78
2023/09/30 02:31:58;;;;;;;33.13;15.07;;;15.20;99.90;;;;;;5091917;28;20047;-79
2023/09/30 02:34:24;;;;;;;22.55;14.68;;;15.30;99.90;;;;;;5055527;28;20090;-77
2023/09/30 02:36:55;;;;;;;25.70;16.08;;;15.30;99.90;;;;;;5092377;28;20095;-78
2023/09/30 02:39:23;;;;;;;26.43;15.30;;;15.20;99.90;;;;;;5086086;28;20043;-78
2023/09/30 02:41:50;;;;;;;27.65;16.75;;;15.20;99.90;;;;;;5072317;28;20034;-78
2023/09/30 02:44:17;;;;;;;35.65;17.55;;;15.10;99.90;;;;;;5093021;28;22665;-78
2023/09/30 02:46:43;;;;;;;25.77;16.35;;;15.20;99.90;;;;;;5072735;28;20047;-78
2023/09/30 02:49:15;;;;;;;29.38;17.00;;;15.10;99.90;;;;;;5071026;28;20088;-79
2023/09/30 02:51:41;;;;;;;27.38;17.67;;;15.10;99.90;;;;;;5073634;28;20024;-78
2023/09/30 02:54:07;;;;;;;29.73;18.15;;;15.10;99.90;;;;;;5074276;28;20040;-78
2023/09/30 02:56:33;;;;;;;27.63;17.70;;;15.10;99.90;;;;;;5058911;28;20036;-79
2023/09/30 02:59:11;;;;;;;30.90;18.13;;;15.00;99.90;;;;;;5070150;28;20031;-78
2023/09/30 03:01:37;;;;;;;27.63;17.92;;;15.10;99.90;;;;;;5056766;28;20036;-78
2023/09/30 03:04:06;;;;;;;25.10;17.38;;;15.10;99.90;;;;;;5097017;28;20020;-78
2023/09/30 03:06:38;;;;;;;34.13;18.02;;;15.10;99.90;;;;;;5073732;28;20162;-79
2023/09/30 03:09:09;;;;;;;23.73;15.40;;;15.10;99.90;;;;;;5075624;28;20031;-78
2023/09/30 03:11:38;;;;;;;30.60;17.15;;;15.10;99.90;;;;;;5073644;28;20293;-79
2023/09/30 03:14:07;;;;;;;27.85;16.42;;;15.10;99.90;;;;;;5091779;28;20032;-79
2023/09/30 03:16:38;;;;;;;28.77;17.48;;;15.10;99.90;;;;;;5098275;28;21125;-78
2023/09/30 03:19:05;;;;;;;32.50;18.77;;;15.00;99.90;;;;;;5091748;28;20082;-78
2023/09/30 03:21:31;;;;;;;33.10;18.75;;;15.00;99.90;;;;;;5076867;28;20028;-78
2023/09/30 03:23:57;;;;;;;29.48;17.98;;;15.00;99.90;;;;;;5078592;28;20026;-79
2023/09/30 03:26:23;;;;;;;28.30;17.65;;;15.00;99.90;;;;;;5070076;28;20440;-78
2023/09/30 03:28:50;;;;;;;26.42;17.02;;;15.00;99.90;;;;;;5074415;28;20491;-78
2023/09/30 03:31:20;;;;;;;33.42;17.83;;;15.00;99.90;;;;;;5070068;28;20463;-79
2023/09/30 03:33:47;;;;;;;28.00;18.75;;;15.00;99.90;;;;;;5094397;28;20062;-78
2023/09/30 03:36:16;;;;;;;31.80;19.23;;;14.90;99.90;;;;;;5070767;28;20545;-77
2023/09/30 03:38:42;;;;;;;32.42;18.30;;;14.90;99.90;;;;;;5078531;28;20019;-77
2023/09/30 03:41:13;;;;;;;30.05;17.77;;;14.80;99.90;;;;;;5063403;28;20049;-78
2023/09/30 03:43:42;;;;;;;38.28;18.75;;;14.80;99.90;;;;;;5098463;28;20460;-77
2023/09/30 03:46:09;;;;;;;32.38;17.05;;;14.80;99.90;;;;;;5100334;28;20024;-78
2023/09/30 03:48:39;;;;;;;31.52;18.65;;;14.80;99.90;;;;;;5080596;28;20551;-78
2023/09/30 03:51:15;;;;;;;30.10;18.27;;;14.80;99.90;;;;;;5071205;28;20023;-77
2023/09/30 03:53:45;;;;;;;26.90;17.55;;;14.90;99.90;;;;;;5078113;28;20111;-78
2023/09/30 03:56:18;;;;;;;29.70;18.02;;;14.90;99.90;;;;;;5057700;28;20035;-79
2023/09/30 03:58:49;;;;;;;27.38;17.17;;;14.90;99.90;;;;;;5098263;28;20024;-77
2023/09/30 04:01:20;;;;;;;31.10;18.60;;;14.90;99.90;;;;;;5088335;28;20036;-78
2023/09/30 04:03:48;;;;;;;31.27;17.03;;;14.80;99.90;;;;;;5079007;28;20478;-78
2023/09/30 04:06:13;;;;;;;34.53;20.58;;;14.80;99.90;;;;;;5075007;28;20030;-78
2023/09/30 04:08:40;;;;;;;35.35;20.30;;;14.80;99.90;;;;;;5093606;28;20047;-78
2023/09/30 04:11:08;;;;;;;34.40;19.38;;;14.70;99.90;;;;;;5072983;28;20028;-78
2023/09/30 04:13:35;;;;;;;30.80;18.38;;;14.70;99.90;;;;;;5080478;28;20092;-78
2023/09/30 04:16:02;;;;;;;27.65;16.88;;;14.70;99.90;;;;;;5082703;28;20027;-78
2023/09/30 04:18:28;;;;;;;31.42;18.10;;;14.70;99.90;;;;;;5068846;28;20047;-78
2023/09/30 04:20:54;;;;;;;33.42;18.13;;;14.80;99.90;;;;;;5077859;28;20036;-77
2023/09/30 04:23:22;;;;;;;29.10;17.63;;;14.80;99.90;;;;;;5071555;28;20233;-77
2023/09/30 04:25:49;;;;;;;29.38;19.33;;;14.70;99.90;;;;;;5071836;28;20019;-77
2023/09/30 04:28:19;;;;;;;30.65;18.63;;;14.70;99.90;;;;;;5092789;28;20012;-77
2023/09/30 04:30:45;;;;;;;32.28;18.77;;;14.70;99.90;;;;;;5079381;28;20020;-77
2023/09/30 04:33:13;;;;;;;32.17;19.13;;;14.70;99.90;;;;;;5075767;28;20480;-78
2023/09/30 04:35:38;;;;;;;32.83;18.75;;;14.70;99.90;;;;;;5077490;28;20020;-78
2023/09/30 04:38:04;;;;;;;35.38;20.40;;;14.60;99.90;;;;;;5075892;28;20099;-78
2023/09/30 04:40:30;;;;;;;33.00;19.10;;;14.60;99.90;;;;;;5077885;28;20025;-78
2023/09/30 04:42:58;;;;;;;30.33;18.73;;;14.60;99.90;;;;;;5070460;28;20024;-77
2023/09/30 04:45:27;;;;;;;35.55;18.27;;;14.50;99.90;;;;;;5089484;28;20096;-78
2023/09/30 04:47:53;;;;;;;28.65;18.20;;;14.60;99.90;;;;;;5071955;28;20031;-77
2023/09/30 04:50:21;;;;;;;33.28;19.92;;;14.60;99.90;;;;;;5070722;28;20378;-78
2023/09/30 04:52:48;;;;;;;33.08;19.27;;;14.60;99.90;;;;;;5090640;28;20038;-78
2023/09/30 04:55:16;;;;;;;28.67;17.98;;;14.60;99.90;;;;;;5070102;28;20035;-77
2023/09/30 04:57:47;;;;;;;30.75;17.02;;;14.50;99.90;;;;;;5066995;28;20423;-78
2023/09/30 05:00:18;;;;;;;29.55;17.75;;;14.50;99.90;;;;;;5088297;28;20020;-78
2023/09/30 05:02:45;;;;;;;26.00;16.85;;;14.50;99.90;;;;;;5090231;28;20586;-78
2023/09/30 05:05:11;;;;;;;27.80;18.25;;;14.50;99.90;;;;;;5074165;28;20016;-77
2023/09/30 05:07:37;;;;;;;27.63;16.73;;;14.50;99.90;;;;;;5067734;28;20030;-77
2023/09/30 05:10:07;;;;;;;26.73;18.08;;;14.50;99.90;;;;;;5085524;28;20497;-78
2023/09/30 05:12:33;;;;;;;27.10;16.17;;;14.50;99.90;;;;;;5090033;28;20134;-78
2023/09/30 05:14:59;;;;;;;33.58;18.38;;;14.50;99.90;;;;;;5067738;28;20094;-77
2023/09/30 05:17:25;;;;;;;29.02;17.75;;;14.50;99.90;;;;;;5074343;28;20520;-77
2023/09/30 05:19:51;;;;;;;30.70;17.35;;;14.50;99.90;;;;;;5083594;28;20019;-77
2023/09/30 05:22:21;;;;;;;32.45;18.60;;;14.50;99.90;;;;;;5065382;28;20115;-77
2023/09/30 05:24:47;;;;;;;30.63;18.88;;;14.50;99.90;;;;;;5076157;28;20568;-78
2023/09/30 05:27:13;;;;;;;31.05;19.08;;;14.40;99.90;;;;;;5093443;28;20028;-78
2023/09/30 05:29:39;;;;;;;25.80;18.27;;;14.50;99.90;;;;;;5084938;28;20024;-78
2023/09/30 05:32:05;;;;;;;26.77;17.05;;;14.50;99.90;;;;;;5065536;28;20043;-78
2023/09/30 05:34:30;;;;;;;31.70;17.40;;;14.60;99.90;;;;;;5070522;28;20506;-77
2023/09/30 05:36:56;;;;;;;25.23;15.93;;;14.60;99.90;;;;;;5067047;28;20036;-78
2023/09/30 05:39:22;;;;;;;28.63;17.58;;;14.50;99.90;;;;;;5062090;28;20017;-78
2023/09/30 05:41:47;;;;;;;29.27;18.52;;;14.50;99.90;;;;;;5088861;28;20035;-78
2023/09/30 05:44:16;;;;;;;31.63;19.98;;;14.50;99.90;;;;;;5082154;28;20020;-78
2023/09/30 05:46:45;;;;;;;31.33;19.23;;;14.50;99.90;;;;;;5069779;28;20551;-77
2023/09/30 05:49:13;;;;;;;34.15;17.67;;;14.50;99.90;;;;;;5069747;28;20031;-78
2023/09/30 05:51:39;;;;;;;31.08;19.00;;;14.50;99.90;;;;;;5071764;28;20036;-79
2023/09/30 05:54:07;;;;;;;33.08;21.38;;;14.50;99.90;;;;;;5080547;28;20107;-78
2023/09/30 05:56:33;;;;;;;38.65;21.20;;;14.50;99.90;;;;;;5071325;28;20035;-77
2023/09/30 05:58:59;;;;;;;37.15;22.90;;;14.50;99.90;;;;;;5085703;28;20024;-78
2023/09/30 06:01:24;;;;;;;39.38;23.67;;;14.50;99.90;;;;;;5081856;28;20380;-78
2023/09/30 06:03:50;;;;;;;26.20;15.57;;;14.50;99.90;;;;;;5081969;28;20023;-78
2023/09/30 06:06:16;;;;;;;27.65;16.73;;;14.40;99.90;;;;;;5085718;28;20513;-78
2023/09/30 06:08:45;;;;;;;25.90;16.25;;;14.50;99.90;;;;;;5073201;28;20020;-78
2023/09/30 06:11:24;;;;;;;30.13;19.02;;;14.50;99.90;;;;;;5085993;28;20028;-78
2023/09/30 06:13:52;;;;;;;36.17;21.90;;;14.50;99.90;;;;;;5061003;28;20029;-78
2023/09/30 06:16:19;;;;;;;40.30;26.48;;;14.60;99.90;;;;;;5084117;28;20034;-77
2023/09/30 06:18:45;;;;;;;50.28;31.27;;;14.50;99.90;;;;;;5089155;28;20631;-78
2023/09/30 06:21:11;;;;;;;61.38;33.88;;;14.50;99.90;;;;;;5069051;28;20048;-77
2023/09/30 06:23:37;;;;;;;46.03;31.90;;;14.40;99.90;;;;;;5084974;28;20024;-80
2023/09/30 06:26:03;;;;;;;47.70;31.42;;;14.50;99.90;;;;;;5084027;28;20390;-77
2023/09/30 06:28:30;;;;;;;50.08;34.40;;;14.50;99.90;;;;;;5076264;28;20031;-78
2023/09/30 06:30:56;;;;;;;50.45;33.38;;;14.60;99.90;;;;;;5071021;28;20020;-78
2023/09/30 06:33:22;;;;;;;56.33;34.13;;;14.60;99.90;;;;;;5067966;28;20043;-78
2023/09/30 06:35:51;;;;;;;43.90;32.47;;;14.50;99.90;;;;;;5079193;28;20375;-78
2023/09/30 06:38:20;;;;;;;56.90;34.10;;;14.50;99.90;;;;;;5069638;28;20032;-78
2023/09/30 06:40:47;;;;;;;47.92;30.85;;;14.50;99.90;;;;;;5068119;28;20047;-78
2023/09/30 06:43:16;;;;;;;49.67;30.75;;;14.60;99.90;;;;;;5070402;28;20017;-78
2023/09/30 06:45:43;;;;;;;50.47;31.77;;;14.50;99.90;;;;;;5074388;28;20066;-77
2023/09/30 06:48:12;;;;;;;48.92;29.52;;;14.60;99.90;;;;;;5065469;28;20591;-77
2023/09/30 06:50:43;;;;;;;51.00;31.75;;;14.60;99.90;;;;;;5071307;28;20040;-78
2023/09/30 06:53:09;;;;;;;53.35;33.05;;;14.60;99.90;;;;;;5079914;28;20474;-78
2023/09/30 06:55:40;;;;;;;52.55;31.23;;;14.60;99.90;;;;;;5065269;28;20020;-77
2023/09/30 06:58:10;;;;;;;51.72;30.92;;;14.60;99.90;;;;;;5085621;28;20099;-78
2023/09/30 07:00:36;;;;;;;52.45;30.05;;;14.60;99.90;;;;;;5084737;28;20036;-78
2023/09/30 07:03:02;;;;;;;59.78;31.52;;;14.70;99.90;;;;;;5084702;28;20107;-78
2023/09/30 07:05:29;;;;;;;47.42;28.55;;;14.70;99.90;;;;;;5084774;28;20159;-78
2023/09/30 07:07:55;;;;;;;45.15;26.45;;;14.70;99.90;;;;;;5072929;28;20467;-79
2023/09/30 07:10:21;;;;;;;48.38;26.13;;;14.80;99.90;;;;;;5078038;28;20024;-78
2023/09/30 07:12:47;;;;;;;40.33;25.67;;;14.80;99.90;;;;;;5080589;28;20028;-77
2023/09/30 07:15:16;;;;;;;42.05;24.35;;;14.80;99.90;;;;;;5074122;28;20028;-78
2023/09/30 07:17:42;;;;;;;43.10;24.33;;;14.80;99.90;;;;;;5079052;28;20036;-78
2023/09/30 07:20:09;;;;;;;44.20;25.33;;;14.80;99.90;;;;;;5074810;28;20020;-78
2023/09/30 07:22:35;;;;;;;42.42;24.92;;;14.90;99.90;;;;;;5086234;28;20021;-77
2023/09/30 07:25:02;;;;;;;45.97;23.17;;;14.90;99.90;;;;;;5061633;28;20043;-77
2023/09/30 07:27:28;;;;;;;38.70;22.30;;;14.90;99.90;;;;;;5091648;28;20024;-78
2023/09/30 07:29:53;;;;;;;45.70;24.67;;;14.90;99.90;;;;;;5076586;28;20059;-77
2023/09/30 07:32:22;;;;;;;36.42;21.95;;;15.00;99.90;;;;;;5062884;28;20024;-78
2023/09/30 07:34:48;;;;;;;43.63;23.50;;;15.00;99.90;;;;;;5069156;28;20499;-78
2023/09/30 07:37:14;;;;;;;41.53;21.85;;;15.10;99.90;;;;;;5089375;28;20070;-78
2023/09/30 07:39:39;;;;;;;42.15;22.13;;;15.10;99.90;;;;;;5064270;28;20024;-78
2023/09/30 07:42:08;;;;;;;42.75;21.50;;;15.20;99.90;;;;;;5062134;28;20387;-78
2023/09/30 07:44:36;;;;;;;51.38;23.38;;;15.20;99.90;;;;;;5071917;28;20119;-78
2023/09/30 07:47:03;;;;;;;41.72;20.23;;;15.20;99.90;;;;;;5062983;28;20056;-77
2023/09/30 07:49:29;;;;;;;39.63;20.63;;;15.30;99.90;;;;;;5096555;28;20383;-77
2023/09/30 07:51:55;;;;;;;33.88;19.40;;;15.30;99.90;;;;;;5083496;28;20107;-77
2023/09/30 07:54:21;;;;;;;35.63;20.65;;;15.30;99.90;;;;;;5087571;28;20169;-77
2023/09/30 07:56:49;;;;;;;37.13;20.80;;;15.30;99.90;;;;;;5074974;28;20428;-77
2023/09/30 07:59:15;;;;;;;38.05;20.05;;;15.40;99.90;;;;;;5072529;28;20115;-77
2023/09/30 08:01:41;;;;;;;37.28;19.27;;;15.40;99.90;;;;;;5070238;28;20494;-76
2023/09/30 08:04:07;;;;;;;42.78;20.13;;;15.50;99.90;;;;;;5072470;28;20095;-78
2023/09/30 08:06:33;;;;;;;39.08;18.92;;;15.50;99.90;;;;;;5071385;28;20043;-77
2023/09/30 08:08:59;;;;;;;38.72;19.25;;;15.60;99.90;;;;;;5084690;28;20023;-77
2023/09/30 08:11:30;;;;;;;31.80;17.13;;;15.70;99.90;;;;;;5077894;28;20387;-77
2023/09/30 08:13:58;;;;;;;37.95;16.35;;;15.80;99.90;;;;;;5072738;28;20488;-78
2023/09/30 08:16:24;;;;;;;36.92;17.48;;;15.80;99.90;;;;;;5091840;28;20020;-77
2023/09/30 08:18:50;;;;;;;34.63;17.95;;;15.90;99.90;;;;;;5083930;28;20028;-77
2023/09/30 08:21:16;;;;;;;30.50;17.00;;;16.00;99.90;;;;;;5075308;28;20513;-76
2023/09/30 08:23:42;;;;;;;33.03;16.33;;;16.10;99.90;;;;;;5071359;28;20020;-77
2023/09/30 08:26:08;;;;;;;29.83;14.75;;;16.20;99.90;;;;;;5074485;28;20021;-75
2023/09/30 08:28:35;;;;;;;36.15;17.25;;;16.30;99.90;;;;;;5085542;28;20028;-76
2023/09/30 08:31:05;;;;;;;33.00;16.52;;;16.30;99.90;;;;;;5076941;28;20479;-77
2023/09/30 08:33:35;;;;;;;38.42;17.05;;;16.40;99.90;;;;;;5085377;28;20050;-77
2023/09/30 08:36:07;;;;;;;34.42;17.02;;;16.40;99.90;;;;;;5078611;28;20044;-77
2023/09/30 08:38:36;;;;;;;30.27;18.27;;;16.50;99.90;;;;;;5088284;28;20468;-77
2023/09/30 08:41:02;;;;;;;32.88;17.58;;;16.50;99.90;;;;;;5087773;28;20505;-76
2023/09/30 08:43:31;;;;;;;33.63;15.95;;;16.50;99.90;;;;;;5089247;28;20045;-76
2023/09/30 08:45:59;;;;;;;37.58;16.98;;;16.70;99.90;;;;;;5093033;28;20020;-76
2023/09/30 08:48:30;;;;;;;34.10;17.58;;;16.70;99.90;;;;;;5086222;28;20027;-77
2023/09/30 08:50:58;;;;;;;29.15;17.58;;;16.80;99.90;;;;;;5066557;28;20082;-78
2023/09/30 08:53:24;;;;;;;33.63;17.45;;;16.80;99.90;;;;;;5082318;28;20029;-76
2023/09/30 08:55:54;;;;;;;36.13;17.98;;;16.90;99.90;;;;;;5080045;28;20020;-77
2023/09/30 08:58:23;;;;;;;31.75;17.67;;;17.00;99.90;;;;;;5067754;28;20119;-77
2023/09/30 09:00:50;;;;;;;31.95;17.48;;;17.00;99.90;;;;;;5082244;28;20020;-78
2023/09/30 09:03:18;;;;;;;35.03;18.05;;;17.10;99.90;;;;;;5089096;28;20024;-77
2023/09/30 09:05:44;;;;;;;31.52;17.25;;;17.10;99.90;;;;;;5071784;28;20063;-77
2023/09/30 09:08:10;;;;;;;33.35;17.67;;;17.20;99.90;;;;;;5069328;28;20075;-78
2023/09/30 09:10:35;;;;;;;30.92;17.63;;;17.20;99.90;;;;;;5071681;28;20020;-77
2023/09/30 09:13:01;;;;;;;32.92;17.30;;;17.20;99.90;;;;;;5073823;28;20031;-77
2023/09/30 09:15:28;;;;;;;28.20;16.83;;;17.30;99.90;;;;;;5081103;28;20503;-77
2023/09/30 09:17:55;;;;;;;27.58;17.10;;;17.40;99.90;;;;;;5072417;28;20157;-77
2023/09/30 09:20:26;;;;;;;28.17;15.70;;;17.50;99.90;;;;;;5077583;28;20036;-76
2023/09/30 09:22:55;;;;;;;25.80;17.05;;;17.70;99.90;;;;;;5081294;28;20020;-77
2023/09/30 09:25:25;;;;;;;27.17;16.05;;;17.80;99.90;;;;;;5069550;28;20028;-77
2023/09/30 09:27:51;;;;;;;35.55;15.27;;;17.90;99.90;;;;;;5068523;28;20032;-76
2023/09/30 09:30:24;;;;;;;27.27;15.10;;;18.00;99.90;;;;;;5079572;28;20028;-77
2023/09/30 09:33:01;;;;;;;21.73;14.65;;;18.10;99.90;;;;;;5066802;28;20082;-77
2023/09/30 09:35:32;;;;;;;22.80;14.18;;;18.20;99.90;;;;;;5069661;28;20499;-76
2023/09/30 09:38:08;;;;;;;20.17;13.63;;;18.40;99.90;;;;;;5078210;28;20043;-77
2023/09/30 09:40:38;;;;;;;24.23;13.80;;;18.50;99.90;;;;;;5070350;28;20032;-76
2023/09/30 09:43:05;;;;;;;19.83;12.35;;;18.50;99.90;;;;;;5073391;28;20593;-77
2023/09/30 09:45:34;;;;;;;18.50;12.05;;;18.60;99.90;;;;;;5095153;28;20616;-77
2023/09/30 09:48:00;;;;;;;18.05;11.35;;;18.70;99.90;;;;;;5064066;28;20559;-76
2023/09/30 09:50:26;;;;;;;15.07;11.05;;;18.70;99.90;;;;;;5072778;28;20033;-76
2023/09/30 09:52:59;;;;;;;20.75;12.02;;;18.80;99.90;;;;;;5066618;28;20031;-77
2023/09/30 09:55:25;;;;;;;18.77;10.23;;;18.90;99.90;;;;;;5063755;28;20052;-76
2023/09/30 09:57:51;;;;;;;18.52;10.88;;;19.00;99.90;;;;;;5065497;28;20024;-77
2023/09/30 10:00:22;;;;;;;19.52;10.57;;;19.00;99.90;;;;;;5079729;28;20563;-77
2023/09/30 10:02:48;;;;;;;15.40;10.18;;;19.20;99.90;;;;;;5092247;28;20589;-76
2023/09/30 10:05:16;;;;;;;25.17;11.73;;;19.20;99.90;;;;;;5090641;28;20034;-76
2023/09/30 10:07:51;;;;;;;19.85;11.20;;;19.30;99.90;;;;;;5081922;28;20055;-77
2023/09/30 10:10:19;;;;;;;19.30;9.57;;;19.30;99.90;;;;;;5063017;28;20053;-76
2023/09/30 10:12:46;;;;;;;20.55;10.20;;;19.50;99.90;;;;;;5078760;28;20089;-77
2023/09/30 10:15:24;;;;;;;16.40;9.35;;;19.50;99.90;;;;;;5074103;28;20507;-76
2023/09/30 10:18:04;;;;;;;19.92;9.38;;;19.70;99.90;;;;;;5067537;28;20032;-77
2023/09/30 10:20:31;;;;;;;17.17;8.98;;;19.70;99.90;;;;;;5065602;28;20031;-76
2023/09/30 10:23:26;;;;;;;15.98;9.20;;;19.80;99.90;;;;;;5069058;28;20025;-76
2023/09/30 10:25:57;;;;;;;14.02;8.70;;;19.90;99.90;;;;;;5093011;28;20540;-76
2023/09/30 10:28:36;;;;;;;13.18;9.35;;;20.00;99.90;;;;;;5066232;28;20030;-76
2023/09/30 10:31:11;;;;;;;11.65;7.05;;;20.10;99.90;;;;;;5082523;28;20017;-77
2023/09/30 10:33:57;;;;;;;9.40;6.95;;;20.30;99.90;;;;;;5069822;28;20028;-76
2023/09/30 10:36:27;;;;;;;12.70;7.05;;;20.40;99.90;;;;;;5071636;28;20028;-75
2023/09/30 10:38:53;;;;;;;14.52;7.82;;;20.50;99.90;;;;;;5083054;28;20024;-76
2023/09/30 10:41:39;;;;;;;14.63;6.55;;;20.60;99.90;;;;;;5095510;28;20046;-76
2023/09/30 10:44:26;;;;;;;10.18;5.70;;;20.70;99.90;;;;;;5092925;28;20499;-77
2023/09/30 10:46:53;;;;;;;11.32;7.22;;;20.80;99.90;;;;;;5067216;28;20025;-75
2023/09/30 10:49:24;;;;;;;8.45;6.15;;;20.80;99.90;;;;;;5070829;28;20020;-76
2023/09/30 10:51:50;;;;;;;10.32;6.55;;;20.90;99.90;;;;;;5077785;28;20046;-75
2023/09/30 10:54:25;;;;;;;11.48;7.15;;;21.00;99.90;;;;;;5094537;28;20103;-76
2023/09/30 10:56:55;;;;;;;10.85;6.45;;;21.00;99.90;;;;;;5087991;28;20025;-76
2023/09/30 10:59:25;;;;;;;10.30;6.40;;;21.10;99.90;;;;;;5083170;28;20028;-76
2023/09/30 11:01:56;;;;;;;11.80;6.70;;;21.10;99.90;;;;;;5077711;28;20396;-77
2023/09/30 11:04:28;;;;;;;13.20;7.20;;;21.00;99.90;;;;;;5070638;28;20496;-76
2023/09/30 11:06:54;;;;;;;10.10;6.38;;;21.00;99.90;;;;;;5087907;28;20020;-77
2023/09/30 11:09:22;;;;;;;12.88;6.63;;;21.00;99.90;;;;;;5066449;28;20036;-76
2023/09/30 11:11:49;;;;;;;17.85;6.65;;;20.70;99.90;;;;;;5066532;28;20055;-77
2023/09/30 11:14:29;;;;;;;8.07;4.90;;;20.70;99.90;;;;;;5068273;28;20031;-76
2023/09/30 11:16:57;;;;;;;12.60;5.25;;;20.80;99.90;;;;;;5057321;28;20025;-76
2023/09/30 11:19:24;;;;;;;8.32;5.13;;;20.70;99.90;;;;;;5073096;28;20027;-76
2023/09/30 11:21:51;;;;;;;8.57;4.82;;;20.50;99.90;;;;;;5087094;28;20457;-75
2023/09/30 11:24:18;;;;;;;9.15;4.55;;;20.70;99.90;;;;;;5089894;28;20498;-76
2023/09/30 11:26:45;;;;;;;7.63;4.13;;;20.70;99.90;;;;;;5068060;28;20435;-76
2023/09/30 11:29:15;;;;;;;7.70;4.30;;;20.50;99.90;;;;;;5082244;28;20483;-76
2023/09/30 11:31:46;;;;;;;9.60;4.90;;;20.60;99.90;;;;;;5092778;28;20080;-75
2023/09/30 11:34:13;;;;;;;9.35;4.45;;;20.70;99.90;;;;;;5073446;28;20554;-76
2023/09/30 11:36:47;;;;;;;7.30;4.80;;;20.80;99.90;;;;;;5082716;28;20043;-77
2023/09/30 11:39:30;;;;;;;8.30;5.30;;;20.90;99.90;;;;;;5083812;28;20139;-75
2023/09/30 11:41:57;;;;;;;10.18;5.03;;;21.10;99.90;;;;;;5081391;28;20016;-75
2023/09/30 11:44:24;;;;;;;10.75;6.18;;;21.30;99.90;;;;;;5048317;28;20024;-77
2023/09/30 11:46:55;;;;;;;8.88;6.10;;;21.20;99.90;;;;;;5063720;28;20043;-76
2023/09/30 11:49:34;;;;;;;10.17;6.50;;;21.30;99.90;;;;;;5077094;28;20028;-76
2023/09/30 11:52:04;;;;;;;10.65;5.97;;;21.30;99.90;;;;;;5074851;28;20365;-76
2023/09/30 11:54:43;;;;;;;8.95;5.50;;;21.30;99.90;;;;;;5080574;28;20032;-76
2023/09/30 11:57:16;;;;;;;9.70;4.82;;;21.40;99.90;;;;;;5087401;28;20028;-77
2023/09/30 11:59:48;;;;;;;10.35;5.90;;;21.50;99.90;;;;;;5088483;28;20116;-77
2023/09/30 12:02:16;;;;;;;9.27;5.93;;;21.20;99.90;;;;;;5074624;28;20024;-77
2023/09/30 12:04:43;;;;;;;8.70;5.82;;;21.20;99.90;;;;;;5089684;28;20028;-77
2023/09/30 12:07:09;;;;;;;10.75;5.75;;;21.20;99.90;;;;;;5087844;28;20027;-76
2023/09/30 12:09:37;;;;;;;7.75;5.45;;;21.30;99.90;;;;;;5088663;28;20127;-74
2023/09/30 12:12:04;;;;;;;10.35;5.72;;;21.40;99.90;;;;;;5095523;28;20016;-76
2023/09/30 12:14:33;;;;;;;11.05;6.32;;;21.50;99.90;;;;;;5093394;28;20032;-75
2023/09/30 12:17:01;;;;;;;10.25;6.00;;;21.40;99.90;;;;;;5071616;28;20039;-77
2023/09/30 12:19:27;;;;;;;11.95;6.82;;;21.40;99.90;;;;;;5091732;28;20395;-77
2023/09/30 12:21:56;;;;;;;12.85;6.40;;;21.10;99.90;;;;;;5076788;28;20024;-76
2023/09/30 12:24:24;;;;;;;8.55;5.70;;;21.00;99.90;;;;;;5095182;28;20044;-76
2023/09/30 12:26:51;;;;;;;8.90;6.25;;;21.00;99.90;;;;;;5093329;28;20050;-77
2023/09/30 12:29:19;;;;;;;8.10;6.20;;;21.10;99.90;;;;;;5090812;28;20024;-76
2023/09/30 12:31:45;;;;;;;11.70;6.28;;;21.00;99.90;;;;;;5074261;28;20531;-77
2023/09/30 12:34:12;;;;;;;11.52;5.90;;;21.00;99.90;;;;;;5090285;28;20055;-77
2023/09/30 12:36:41;;;;;;;11.07;5.78;;;20.80;99.90;;;;;;5078554;28;20028;-78